Time;durP1;ratioP1;P1;durP2;ratioP2;P2;SDS_P1;SDS_P2;PMS_P1;PMS_P2;Temp;Humidity;BMP_temperature;BMP_pressure;BME280_temperature;BME280_humidity;BME280_pressure;Samples;Min_cycle;Max_cycle;Signal;HPM_P1;HPM_P2
2022/11/20 00:02:39;;;;;;;15.93;6.15;;;15.50;99.90;;;;;;4991922;28;20041;-71
2022/11/20 00:05:44;;;;;;;17.85;6.07;;;15.50;99.90;;;;;;4991726;28;20046;-71
2022/11/20 00:08:49;;;;;;;16.95;5.50;;;15.40;99.90;;;;;;4990665;28;20045;-71
2022/11/20 00:11:53;;;;;;;13.85;4.93;;;15.30;99.90;;;;;;4991659;28;20049;-71
2022/11/20 00:14:57;;;;;;;16.80;5.78;;;15.20;99.90;;;;;;4991660;28;20057;-71
2022/11/20 00:18:01;;;;;;;11.57;4.63;;;15.20;99.90;;;;;;4991429;28;20066;-71
2022/11/20 00:21:11;;;;;;;15.27;4.50;;;15.30;99.90;;;;;;4991660;28;20561;-71
2022/11/20 00:24:15;;;;;;;9.00;4.25;;;15.40;99.90;;;;;;4991696;28;20049;-71
2022/11/20 00:27:20;;;;;;;20.30;6.93;;;15.40;99.90;;;;;;4991356;28;20057;-71
2022/11/20 00:30:24;;;;;;;11.68;4.97;;;15.50;99.90;;;;;;4991432;28;20509;-71
2022/11/20 00:33:28;;;;;;;18.67;5.63;;;15.60;99.90;;;;;;4991283;28;20046;-71
2022/11/20 00:36:33;;;;;;;9.65;4.75;;;15.50;99.90;;;;;;4991456;28;20504;-71
2022/11/20 00:39:37;;;;;;;14.18;5.65;;;15.40;99.90;;;;;;4991449;28;20057;-71
2022/11/20 00:42:41;;;;;;;12.88;6.47;;;15.40;99.90;;;;;;4991613;28;20050;-71
2022/11/20 00:45:45;;;;;;;16.17;7.03;;;15.30;99.90;;;;;;4991616;28;20114;-71
2022/11/20 00:48:49;;;;;;;16.88;6.78;;;15.20;99.90;;;;;;4991300;28;20053;-71
2022/11/20 00:51:53;;;;;;;9.57;5.25;;;15.10;99.90;;;;;;4991250;28;20533;-71
2022/11/20 00:54:57;;;;;;;15.20;5.60;;;15.10;99.90;;;;;;4991555;28;20046;-71
2022/11/20 00:58:01;;;;;;;12.98;5.88;;;15.10;99.90;;;;;;4991269;28;20509;-71
2022/11/20 01:01:20;;;;;;;18.20;5.95;;;15.00;99.90;;;;;;4991111;28;20045;-71
2022/11/20 01:04:24;;;;;;;20.77;10.55;;;15.00;99.90;;;;;;4991620;28;20050;-71
2022/11/20 01:07:28;;;;;;;11.48;6.60;;;15.00;99.90;;;;;;4991040;28;20050;-71
2022/11/20 01:10:32;;;;;;;14.20;6.90;;;15.00;99.90;;;;;;4991444;28;20049;-72
2022/11/20 01:13:39;;;;;;;13.35;5.95;;;14.90;99.90;;;;;;4991427;28;20061;-72
2022/11/20 01:16:45;;;;;;;14.38;6.40;;;14.90;99.90;;;;;;4990826;28;20041;-72
2022/11/20 01:19:50;;;;;;;12.27;6.35;;;14.90;99.90;;;;;;4991800;28;20051;-72
2022/11/20 01:22:54;;;;;;;17.80;6.50;;;15.00;99.90;;;;;;4994706;28;20050;-72
2022/11/20 01:26:01;;;;;;;22.02;6.82;;;15.00;99.90;;;;;;4994980;28;20057;-72
2022/11/20 01:29:06;;;;;;;12.23;6.10;;;14.90;99.90;;;;;;4994397;28;20054;-72
2022/11/20 01:32:10;;;;;;;14.65;6.45;;;15.00;99.90;;;;;;4994583;28;20053;-72
2022/11/20 01:35:14;;;;;;;9.98;6.57;;;15.00;99.90;;;;;;4994528;28;20057;-72
2022/11/20 01:38:19;;;;;;;14.25;6.35;;;14.80;99.90;;;;;;4994237;28;20057;-71
2022/11/20 01:44:54;;;;;;;19.50;6.47;;;14.60;99.90;;;;;;4994393;28;20045;-72
2022/11/20 01:47:58;;;;;;;12.32;6.78;;;14.60;99.90;;;;;;4994284;28;20058;-71
2022/11/20 01:51:03;;;;;;;15.93;6.00;;;14.60;99.90;;;;;;4994232;28;20045;-71
2022/11/20 01:54:12;;;;;;;16.33;5.28;;;14.50;99.90;;;;;;4994465;28;20054;-72
2022/11/20 01:57:18;;;;;;;15.90;5.75;;;14.50;99.90;;;;;;5004661;28;20053;-72
2022/11/20 02:00:22;;;;;;;13.40;5.97;;;14.40;99.90;;;;;;4993832;28;20041;-71
2022/11/20 02:03:26;;;;;;;14.57;5.45;;;14.40;99.90;;;;;;4994344;28;20045;-71
2022/11/20 02:06:35;;;;;;;18.55;6.40;;;14.30;99.90;;;;;;4994195;28;20049;-72
2022/11/20 02:09:39;;;;;;;17.52;6.35;;;14.20;99.90;;;;;;4994257;28;20065;-72
2022/11/20 02:16:28;;;;;;;15.55;5.85;;;14.20;99.90;;;;;;4994210;28;20053;-71
2022/11/20 02:19:32;;;;;;;16.63;5.50;;;14.20;99.90;;;;;;4993873;28;20049;-71
2022/11/20 02:22:43;;;;;;;18.00;6.30;;;14.30;99.90;;;;;;4994071;28;20046;-71
2022/11/20 02:25:47;;;;;;;11.90;4.90;;;14.30;99.90;;;;;;4993952;28;20041;-72
2022/11/20 02:28:51;;;;;;;11.40;4.75;;;14.40;99.90;;;;;;4993802;28;20057;-71
2022/11/20 02:31:57;;;;;;;11.55;5.13;;;14.40;99.90;;;;;;4992998;28;20050;-71
2022/11/20 02:35:31;;;;;;;14.40;4.30;;;14.40;99.90;;;;;;4993439;28;20398;-72
2022/11/20 02:38:35;;;;;;;8.20;4.30;;;14.50;99.90;;;;;;4993553;28;20505;-71
2022/11/20 02:41:39;;;;;;;11.68;4.40;;;14.40;99.90;;;;;;4993642;28;20516;-72
2022/11/20 02:44:43;;;;;;;13.60;4.75;;;14.50;99.90;;;;;;4993270;28;20042;-71
2022/11/20 02:47:46;;;;;;;15.95;4.88;;;14.50;99.90;;;;;;4992939;28;20073;-72
2022/11/20 02:50:50;;;;;;;13.80;4.35;;;14.50;99.90;;;;;;4992925;28;20170;-71
2022/11/20 02:53:54;;;;;;;6.72;3.78;;;14.50;99.90;;;;;;4993240;28;20053;-71
2022/11/20 02:56:58;;;;;;;7.43;3.15;;;14.30;99.90;;;;;;4992758;28;20046;-71
2022/11/20 03:00:03;;;;;;;6.20;2.80;;;14.40;99.90;;;;;;4993220;28;20041;-71
2022/11/20 03:03:08;;;;;;;7.82;3.50;;;14.40;99.90;;;;;;4992780;28;20045;-71
2022/11/20 03:06:11;;;;;;;7.88;2.70;;;14.50;99.90;;;;;;4992687;28;20069;-71
2022/11/20 03:09:15;;;;;;;8.70;3.10;;;14.50;99.90;;;;;;4993038;28;20065;-71
2022/11/20 03:12:19;;;;;;;13.02;3.35;;;14.50;99.90;;;;;;4992898;28;20061;-71
2022/11/20 03:15:23;;;;;;;10.25;3.17;;;14.50;99.90;;;;;;4992728;28;20053;-72
2022/11/20 03:18:28;;;;;;;12.57;4.15;;;14.40;99.90;;;;;;4992660;28;20042;-71
2022/11/20 03:21:36;;;;;;;11.55;3.20;;;14.40;99.90;;;;;;4992648;28;20049;-71
2022/11/20 03:24:40;;;;;;;11.63;2.50;;;14.40;99.90;;;;;;4992802;28;20402;-71
2022/11/20 03:27:44;;;;;;;12.15;2.80;;;14.30;99.90;;;;;;4992350;28;20061;-71
2022/11/20 03:30:48;;;;;;;6.63;2.92;;;14.40;99.90;;;;;;4992681;28;20073;-72
2022/11/20 03:33:52;;;;;;;9.35;2.92;;;14.20;99.90;;;;;;4992567;28;20073;-71
2022/11/20 03:36:56;;;;;;;9.80;3.05;;;14.00;99.90;;;;;;4992222;28;20045;-71
2022/11/20 03:40:00;;;;;;;10.80;3.08;;;13.90;99.90;;;;;;4992139;28;20049;-71
2022/11/20 03:43:04;;;;;;;13.18;4.07;;;14.00;99.90;;;;;;4992247;28;20049;-71
2022/11/20 03:46:08;;;;;;;12.05;3.40;;;13.80;99.90;;;;;;4991894;28;20038;-71
2022/11/20 03:49:12;;;;;;;8.70;3.03;;;13.80;99.90;;;;;;4991791;28;20053;-72
2022/11/20 03:52:16;;;;;;;11.38;3.13;;;13.70;99.90;;;;;;4992360;28;20414;-71
2022/11/20 03:55:20;;;;;;;9.98;3.80;;;13.80;99.90;;;;;;4992152;28;20414;-71
2022/11/20 03:58:24;;;;;;;8.90;3.13;;;13.70;99.90;;;;;;4992101;28;20065;-71
2022/11/20 04:01:34;;;;;;;7.15;3.35;;;13.70;99.90;;;;;;4992000;28;20049;-71
2022/11/20 04:04:38;;;;;;;10.32;3.53;;;13.70;99.90;;;;;;4991961;28;20046;-71
2022/11/20 04:07:42;;;;;;;11.82;3.60;;;13.80;99.90;;;;;;4991685;28;20049;-72
2022/11/20 04:10:46;;;;;;;10.15;3.00;;;13.80;99.90;;;;;;4991854;28;20439;-71
2022/11/20 04:13:52;;;;;;;5.55;2.45;;;13.70;99.90;;;;;;4991813;28;20037;-71
2022/11/20 04:16:57;;;;;;;9.98;2.90;;;13.80;99.90;;;;;;4990640;28;20057;-72
2022/11/20 04:20:01;;;;;;;11.30;3.25;;;13.80;99.90;;;;;;4991597;28;20640;-71
2022/11/20 04:23:05;;;;;;;11.00;3.40;;;13.60;99.90;;;;;;4991665;28;20037;-71
2022/11/20 04:26:11;;;;;;;12.63;3.42;;;13.70;99.90;;;;;;4991590;28;20045;-71
2022/11/20 04:29:15;;;;;;;10.02;4.50;;;13.60;99.90;;;;;;4991589;28;20057;-71
2022/11/20 04:32:19;;;;;;;15.32;4.78;;;13.60;99.90;;;;;;4991651;28;20069;-71
2022/11/20 04:35:23;;;;;;;15.32;4.43;;;13.70;99.90;;;;;;4991637;28;20053;-71
2022/11/20 04:38:26;;;;;;;14.55;4.32;;;13.60;99.90;;;;;;4991466;28;20045;-71
2022/11/20 04:41:36;;;;;;;11.55;4.10;;;13.80;99.90;;;;;;4991630;28;20412;-72
2022/11/20 04:44:39;;;;;;;11.55;3.90;;;13.90;99.90;;;;;;4991483;28;20045;-71
2022/11/20 04:47:43;;;;;;;6.22;3.58;;;13.80;99.90;;;;;;4991116;28;20045;-72
2022/11/20 04:50:47;;;;;;;10.50;4.28;;;13.80;99.90;;;;;;4991122;28;20065;-71
2022/11/20 04:53:51;;;;;;;14.55;3.50;;;13.80;99.90;;;;;;4991589;28;20501;-70
2022/11/20 04:56:55;;;;;;;12.57;3.88;;;13.70;99.90;;;;;;4995347;28;20110;-69
2022/11/20 04:59:59;;;;;;;17.38;3.63;;;13.80;99.90;;;;;;4994908;28;20042;-71
2022/11/20 05:03:03;;;;;;;9.70;3.03;;;13.90;99.90;;;;;;4995141;28;20050;-70
2022/11/20 05:06:09;;;;;;;8.63;3.40;;;13.90;99.90;;;;;;4995093;28;20065;-71
2022/11/20 05:09:13;;;;;;;10.68;3.10;;;14.00;99.90;;;;;;4994837;28;20402;-71
2022/11/20 05:12:17;;;;;;;8.80;2.60;;;14.10;99.90;;;;;;4995035;28;20052;-71
2022/11/20 05:15:21;;;;;;;7.30;2.20;;;14.20;99.90;;;;;;4994889;28;20402;-71
2022/11/20 05:18:25;;;;;;;14.18;2.65;;;14.30;99.90;;;;;;4994758;28;20126;-72
2022/11/20 05:21:31;;;;;;;11.43;2.90;;;14.30;99.90;;;;;;4994843;28;20071;-71
2022/11/20 05:24:35;;;;;;;11.52;2.63;;;14.20;99.90;;;;;;4994968;28;20038;-72
2022/11/20 05:27:39;;;;;;;10.80;2.90;;;14.10;99.90;;;;;;4994691;28;20061;-72
2022/11/20 05:30:43;;;;;;;11.98;3.08;;;14.20;99.90;;;;;;4994555;28;20049;-71
2022/11/20 05:33:47;;;;;;;13.45;3.30;;;14.20;99.90;;;;;;4994473;28;20037;-72
2022/11/20 05:36:51;;;;;;;13.50;3.42;;;14.30;99.90;;;;;;4994763;28;20053;-71
2022/11/20 05:39:55;;;;;;;10.07;2.60;;;14.30;99.90;;;;;;4994767;28;20041;-71
2022/11/20 05:43:00;;;;;;;5.40;2.28;;;14.30;99.90;;;;;;4994397;28;20525;-71
2022/11/20 05:46:05;;;;;;;8.73;2.50;;;14.20;99.90;;;;;;4994366;28;20041;-71
2022/11/20 05:49:09;;;;;;;7.38;2.35;;;14.10;99.90;;;;;;4994219;28;20058;-71
2022/11/20 05:52:13;;;;;;;7.47;2.67;;;14.10;99.90;;;;;;4994405;28;20042;-70
2022/11/20 05:55:16;;;;;;;7.40;2.25;;;14.10;99.90;;;;;;4994393;28;20054;-71
2022/11/20 05:58:20;;;;;;;9.13;3.40;;;14.10;99.90;;;;;;4994395;28;20505;-71
2022/11/20 06:01:26;;;;;;;8.85;2.28;;;14.10;99.90;;;;;;4994007;28;20065;-70
2022/11/20 06:04:30;;;;;;;11.65;2.55;;;14.10;99.90;;;;;;4994454;28;20516;-70
2022/11/20 06:07:34;;;;;;;5.05;1.95;;;14.20;99.90;;;;;;4992725;28;20045;-71
2022/11/20 06:10:38;;;;;;;10.60;2.25;;;14.30;99.90;;;;;;4994071;28;20061;-70
2022/11/20 06:13:42;;;;;;;5.43;2.10;;;14.30;99.90;;;;;;4994175;28;20065;-71
2022/11/20 06:16:46;;;;;;;6.90;2.30;;;14.30;99.90;;;;;;4993718;28;20398;-71
2022/11/20 06:19:50;;;;;;;7.47;2.35;;;14.30;99.90;;;;;;4994013;28;20635;-70
2022/11/20 06:22:55;;;;;;;9.50;2.60;;;14.30;99.90;;;;;;4994077;28;20053;-71
2022/11/20 06:26:08;;;;;;;8.95;2.97;;;14.30;99.90;;;;;;4993793;28;20521;-71
2022/11/20 06:29:11;;;;;;;7.93;3.67;;;14.30;99.90;;;;;;4993512;28;20053;-71
2022/11/20 06:32:16;;;;;;;7.05;3.63;;;14.30;99.90;;;;;;4993850;28;20053;-71
2022/11/20 06:35:19;;;;;;;8.30;3.55;;;14.30;99.90;;;;;;4993582;28;20045;-71
2022/11/20 06:38:25;;;;;;;6.88;3.65;;;14.30;99.90;;;;;;4993575;28;20045;-71
2022/11/20 06:41:29;;;;;;;10.00;4.43;;;14.30;99.90;;;;;;4992938;28;20046;-70
2022/11/20 06:44:32;;;;;;;10.63;3.20;;;14.20;99.90;;;;;;4993736;28;20054;-71
2022/11/20 06:47:36;;;;;;;6.97;3.20;;;14.20;99.90;;;;;;4993298;28;20049;-71
2022/11/20 06:50:40;;;;;;;7.90;3.58;;;14.20;99.90;;;;;;4993092;28;20050;-69
2022/11/20 06:53:44;;;;;;;9.98;3.53;;;14.30;99.90;;;;;;4993251;28;20505;-69
2022/11/20 06:56:49;;;;;;;8.57;3.85;;;14.30;99.90;;;;;;4992805;28;20398;-70
2022/11/20 06:59:52;;;;;;;9.18;3.50;;;14.30;99.90;;;;;;4993263;28;20049;-69
2022/11/20 07:02:57;;;;;;;8.50;3.63;;;14.30;99.90;;;;;;4992937;28;20054;-72
2022/11/20 07:06:01;;;;;;;7.05;2.90;;;14.20;99.90;;;;;;5003493;28;20041;-70
2022/11/20 07:09:05;;;;;;;5.65;2.67;;;14.20;99.90;;;;;;4992806;28;20072;-71
2022/11/20 07:12:09;;;;;;;11.10;2.95;;;14.10;99.90;;;;;;4992962;28;20042;-70
2022/11/20 07:15:13;;;;;;;7.70;2.95;;;13.90;99.90;;;;;;4992589;28;20058;-71
2022/11/20 07:18:17;;;;;;;9.38;2.80;;;14.00;99.90;;;;;;4992453;28;20034;-71
2022/11/20 07:21:21;;;;;;;11.50;2.83;;;14.00;99.90;;;;;;4993007;28;20605;-71
2022/11/20 07:24:25;;;;;;;9.88;2.67;;;14.00;99.90;;;;;;4992544;28;20045;-71
2022/11/20 07:27:30;;;;;;;8.65;3.00;;;14.00;99.90;;;;;;4992792;28;20061;-71
2022/11/20 07:30:34;;;;;;;7.38;2.67;;;14.10;99.90;;;;;;4992227;28;20050;-69
2022/11/20 07:33:37;;;;;;;7.47;2.05;;;14.10;99.90;;;;;;4992641;28;20049;-71
2022/11/20 07:36:41;;;;;;;5.32;1.88;;;14.20;99.90;;;;;;4992386;28;20497;-69
2022/11/20 07:39:45;;;;;;;2.55;1.50;;;14.20;99.90;;;;;;4992342;28;20057;-69
2022/11/20 07:42:54;;;;;;;5.65;1.70;;;14.20;99.90;;;;;;4992462;28;20057;-71
2022/11/20 07:45:58;;;;;;;4.25;1.50;;;14.10;99.90;;;;;;4992405;28;20537;-71
2022/11/20 07:49:02;;;;;;;4.47;1.60;;;14.10;99.90;;;;;;4991893;28;20061;-69
2022/11/20 07:52:06;;;;;;;5.60;1.63;;;14.10;99.90;;;;;;4992225;28;20430;-71
2022/11/20 07:55:10;;;;;;;3.00;1.88;;;14.00;99.90;;;;;;4992045;28;20049;-70
2022/11/20 07:58:14;;;;;;;2.50;1.50;;;14.10;99.90;;;;;;4991973;28;20104;-70
2022/11/20 08:01:18;;;;;;;7.47;2.05;;;14.10;99.90;;;;;;4992230;28;20041;-70
2022/11/20 08:04:23;;;;;;;3.55;1.55;;;14.10;99.90;;;;;;4991957;28;20428;-70
2022/11/20 08:07:27;;;;;;;2.67;1.70;;;14.00;99.90;;;;;;4991689;28;20042;-70
2022/11/20 08:10:31;;;;;;;3.45;1.98;;;14.00;99.90;;;;;;4991503;28;20053;-69
2022/11/20 08:16:57;;;;;;;6.28;2.10;;;14.10;99.90;;;;;;4992109;28;20045;-70
2022/11/20 08:20:01;;;;;;;4.80;2.42;;;14.10;99.90;;;;;;4992060;28;20059;-70
2022/11/20 08:23:07;;;;;;;5.03;2.50;;;14.10;99.90;;;;;;4991820;28;20045;-69
2022/11/20 08:26:11;;;;;;;7.75;2.90;;;14.00;99.90;;;;;;4991503;28;20037;-69
2022/11/20 08:29:14;;;;;;;6.07;3.22;;;14.00;99.90;;;;;;4991034;28;20061;-69
2022/11/20 08:32:18;;;;;;;5.68;3.00;;;14.00;99.90;;;;;;4991586;28;20049;-69
2022/11/20 08:35:23;;;;;;;6.63;3.63;;;14.00;99.90;;;;;;4991547;28;20041;-68
2022/11/20 08:38:27;;;;;;;7.85;3.25;;;14.00;99.90;;;;;;4991861;28;20050;-68
2022/11/20 08:41:32;;;;;;;6.35;4.28;;;14.10;99.90;;;;;;4992283;28;20045;-69
2022/11/20 08:44:37;;;;;;;9.35;4.95;;;14.10;99.90;;;;;;4991914;28;20046;-69
2022/11/20 08:47:41;;;;;;;11.20;5.60;;;14.10;99.90;;;;;;4991877;28;20477;-69
2022/11/20 08:50:45;;;;;;;11.88;6.15;;;14.10;99.90;;;;;;4991601;28;20489;-69
2022/11/20 08:53:49;;;;;;;11.45;6.30;;;14.10;99.90;;;;;;4991626;28;20525;-69
2022/11/20 08:56:54;;;;;;;13.55;6.20;;;14.10;99.90;;;;;;4991267;28;20049;-69
2022/11/20 08:59:58;;;;;;;10.93;5.30;;;14.20;99.90;;;;;;4991238;28;20110;-69
2022/11/20 09:03:02;;;;;;;12.27;6.38;;;14.20;99.90;;;;;;4991642;28;20501;-69
2022/11/20 09:06:07;;;;;;;13.60;5.35;;;14.30;99.90;;;;;;4991587;28;20049;-69
2022/11/20 09:09:11;;;;;;;13.75;6.78;;;14.30;99.90;;;;;;4991361;28;20073;-69
2022/11/20 09:12:16;;;;;;;8.23;4.60;;;14.30;99.90;;;;;;4991251;28;20517;-69
2022/11/20 09:15:20;;;;;;;11.35;4.03;;;14.40;99.90;;;;;;4991407;28;20110;-69
2022/11/20 09:18:25;;;;;;;9.25;3.90;;;14.50;99.90;;;;;;4991224;28;20045;-70
2022/11/20 09:21:29;;;;;;;17.48;10.30;;;14.60;99.90;;;;;;4991119;28;20079;-69
2022/11/20 09:24:33;;;;;;;15.02;7.43;;;14.60;99.90;;;;;;4991105;28;20061;-69
2022/11/20 09:27:37;;;;;;;13.85;6.40;;;14.60;99.90;;;;;;4990944;28;20049;-69
2022/11/20 09:30:41;;;;;;;10.27;6.75;;;14.70;99.90;;;;;;4990868;28;20054;-68
2022/11/20 09:33:45;;;;;;;8.43;4.35;;;14.70;99.90;;;;;;4991335;28;20050;-69
2022/11/20 09:36:49;;;;;;;8.00;4.32;;;14.70;99.90;;;;;;4991341;28;20132;-69
2022/11/20 09:39:53;;;;;;;4.75;3.45;;;14.70;99.90;;;;;;4991045;28;20053;-68
2022/11/20 09:43:10;;;;;;;8.07;4.68;;;14.70;99.90;;;;;;4994540;28;20521;-68
2022/11/20 09:46:36;;;;;;;11.82;5.78;;;14.70;99.90;;;;;;4994482;28;20053;-68
2022/11/20 09:49:55;;;;;;;14.07;7.78;;;14.60;99.90;;;;;;4994050;28;20057;-68
2022/11/20 09:53:40;;;;;;;14.00;8.82;;;14.50;99.90;;;;;;4994234;28;20046;-69
2022/11/20 09:56:50;;;;;;;13.32;7.95;;;14.40;99.90;;;;;;4994424;28;20042;-70
2022/11/20 10:00:00;;;;;;;13.05;7.63;;;14.40;99.90;;;;;;4994204;28;20111;-69
2022/11/20 10:03:18;;;;;;;12.17;6.67;;;14.50;99.90;;;;;;4994390;28;20160;-68
2022/11/20 10:06:39;;;;;;;10.65;6.13;;;14.50;99.90;;;;;;4994234;28;20185;-68
2022/11/20 10:09:54;;;;;;;11.27;6.13;;;14.60;99.90;;;;;;4994074;28;20061;-68
2022/11/20 10:13:30;;;;;;;11.40;6.35;;;14.70;99.90;;;;;;4993835;28;20510;-68
2022/11/20 10:16:43;;;;;;;12.50;6.63;;;14.80;99.90;;;;;;4980013;28;20686;-68
2022/11/20 10:19:56;;;;;;;10.35;6.63;;;14.80;99.90;;;;;;4992143;28;20045;-69
2022/11/20 10:23:20;;;;;;;9.27;6.40;;;14.80;99.90;;;;;;4991801;28;20058;-69
2022/11/20 10:26:50;;;;;;;14.10;6.45;;;14.80;99.90;;;;;;4993089;28;20054;-68
2022/11/20 10:30:06;;;;;;;14.95;8.60;;;14.80;99.90;;;;;;4993433;28;20544;-68
2022/11/20 10:33:21;;;;;;;15.68;8.60;;;14.90;99.90;;;;;;4993305;28;20042;-71
2022/11/20 10:36:27;;;;;;;13.70;6.63;;;14.80;99.90;;;;;;4993682;28;20045;-69
2022/11/20 10:39:50;;;;;;;10.32;5.32;;;15.00;99.90;;;;;;4993749;28;20054;-70
2022/11/20 10:43:08;;;;;;;11.25;5.88;;;14.90;99.90;;;;;;4993298;28;20394;-70
2022/11/20 10:46:24;;;;;;;8.60;5.80;;;15.00;99.90;;;;;;4993239;28;20053;-70
2022/11/20 10:49:28;;;;;;;11.15;6.18;;;15.00;99.90;;;;;;4992879;28;20049;-70
2022/11/20 10:52:51;;;;;;;11.13;5.53;;;15.00;99.90;;;;;;4992340;28;20062;-70
2022/11/20 10:56:10;;;;;;;9.10;4.80;;;15.10;99.90;;;;;;4993014;28;20057;-70
2022/11/20 10:59:59;;;;;;;11.45;5.90;;;15.20;99.90;;;;;;4993231;28;20041;-70
2022/11/20 11:03:13;;;;;;;10.32;6.15;;;15.20;99.90;;;;;;4993230;28;20069;-70
2022/11/20 11:06:35;;;;;;;10.35;6.63;;;15.40;99.90;;;;;;4992725;28;20038;-70
2022/11/20 11:09:43;;;;;;;14.95;6.90;;;15.50;99.90;;;;;;4992667;28;20058;-69
2022/11/20 11:12:48;;;;;;;12.65;7.32;;;15.50;99.90;;;;;;4992518;28;20058;-70
2022/11/20 11:15:53;;;;;;;12.25;6.88;;;15.60;99.90;;;;;;4992646;28;20057;-71
2022/11/20 11:19:11;;;;;;;10.70;6.55;;;15.60;99.90;;;;;;4992036;28;20049;-71
2022/11/20 11:22:18;;;;;;;11.75;6.43;;;15.70;99.90;;;;;;4992242;28;20520;-71
2022/11/20 11:25:30;;;;;;;10.25;6.30;;;15.80;99.90;;;;;;4992579;28;20046;-72
2022/11/20 11:28:34;;;;;;;8.25;4.82;;;15.80;99.90;;;;;;4990295;28;20057;-72
2022/11/20 11:31:38;;;;;;;8.10;4.60;;;15.90;99.90;;;;;;4992126;28;20057;-71
2022/11/20 11:34:42;;;;;;;8.77;5.60;;;15.90;99.90;;;;;;4992402;28;20041;-71
2022/11/20 11:37:48;;;;;;;12.07;6.50;;;15.90;99.90;;;;;;4992408;28;20056;-72
2022/11/20 11:40:54;;;;;;;9.07;6.28;;;15.90;99.90;;;;;;4991948;28;20041;-72
2022/11/20 11:47:43;;;;;;;6.53;4.53;;;16.10;99.90;;;;;;4991956;28;20505;-71
2022/11/20 11:50:51;;;;;;;10.43;5.63;;;16.20;99.90;;;;;;4991701;28;20053;-72
2022/11/20 11:53:59;;;;;;;8.20;4.45;;;16.20;99.90;;;;;;4992142;28;20045;-72
2022/11/20 11:57:15;;;;;;;9.52;4.70;;;16.30;99.90;;;;;;4991827;28;20050;-72
2022/11/20 12:00:21;;;;;;;7.60;3.72;;;16.30;99.90;;;;;;4991949;28;20046;-72
2022/11/20 12:03:39;;;;;;;6.18;3.65;;;16.30;99.90;;;;;;4991377;28;20049;-72
2022/11/20 12:06:48;;;;;;;8.88;4.45;;;16.30;99.90;;;;;;4991645;28;20049;-72
2022/11/20 12:09:54;;;;;;;8.73;4.80;;;16.30;99.90;;;;;;4991476;28;20061;-72
2022/11/20 12:13:08;;;;;;;6.38;4.13;;;16.40;99.90;;;;;;4991742;28;20049;-71
2022/11/20 12:16:17;;;;;;;8.60;4.25;;;16.40;99.90;;;;;;4991468;28;20501;-71
2022/11/20 12:19:21;;;;;;;7.13;4.18;;;16.50;99.90;;;;;;4990646;28;20045;-71
2022/11/20 12:22:40;;;;;;;4.88;3.40;;;16.60;99.90;;;;;;4991645;28;20041;-72
2022/11/20 12:25:48;;;;;;;8.15;3.50;;;16.60;99.90;;;;;;4991470;28;20065;-72
2022/11/20 12:29:14;;;;;;;6.72;4.10;;;16.80;99.90;;;;;;4991642;28;20505;-71
2022/11/20 12:32:36;;;;;;;9.50;5.20;;;16.70;99.90;;;;;;4991487;28;20053;-71
2022/11/20 12:36:14;;;;;;;8.20;4.95;;;16.70;99.90;;;;;;4991552;28;20049;-71
2022/11/20 12:39:18;;;;;;;7.22;4.40;;;16.60;99.90;;;;;;4991395;28;20037;-71
2022/11/20 12:46:12;;;;;;;10.05;4.50;;;16.70;99.90;;;;;;4991507;28;20045;-71
2022/11/20 12:49:41;;;;;;;8.05;4.65;;;16.70;99.90;;;;;;4991163;28;20053;-71
2022/11/20 12:53:01;;;;;;;7.80;4.43;;;16.70;99.90;;;;;;4991355;28;20057;-71
2022/11/20 12:56:28;;;;;;;6.10;3.75;;;16.70;99.90;;;;;;4991534;28;20118;-72
2022/11/20 13:00:10;;;;;;;7.45;3.78;;;16.80;99.90;;;;;;4991519;28;20056;-71
2022/11/20 13:03:54;;;;;;;8.43;4.07;;;16.80;99.90;;;;;;4990937;28;20394;-71
2022/11/20 13:06:59;;;;;;;6.55;4.13;;;16.80;99.90;;;;;;4991340;28;20054;-72
2022/11/20 13:10:34;;;;;;;72.57;46.35;;;16.70;99.90;;;;;;4991001;28;20053;-71
2022/11/20 13:14:03;;;;;;;34.80;24.60;;;16.70;99.90;;;;;;4991004;28;20041;-72
2022/11/20 13:17:35;;;;;;;12.95;6.32;;;16.70;99.90;;;;;;4993526;28;20500;-72
2022/11/20 13:20:43;;;;;;;;;;;16.70;99.90;;;;;;4995444;28;20064;-71
2022/11/20 13:23:47;;;;;;;5.80;3.22;;;16.70;99.90;;;;;;4994831;28;19909;-72
2022/11/20 13:27:13;;;;;;;5.65;3.20;;;16.80;99.90;;;;;;4994806;28;20044;-72
2022/11/20 13:30:20;;;;;;;6.20;3.58;;;16.80;99.90;;;;;;4994408;28;20053;-71
2022/11/20 13:33:34;;;;;;;6.53;3.63;;;16.80;99.90;;;;;;4994824;28;20374;-71
2022/11/20 13:36:50;;;;;;;6.50;3.83;;;16.80;99.90;;;;;;4994444;28;20049;-71
2022/11/20 13:40:06;;;;;;;7.55;4.68;;;16.80;99.90;;;;;;4994780;28;20049;-70
2022/11/20 13:43:23;;;;;;;9.93;4.30;;;16.80;99.90;;;;;;4994641;28;20069;-71
2022/11/20 13:46:39;;;;;;;8.13;4.50;;;16.80;99.90;;;;;;4994216;28;20041;-71
2022/11/20 13:49:44;;;;;;;6.43;4.22;;;16.80;99.90;;;;;;4994060;28;20413;-71
2022/11/20 13:53:15;;;;;;;8.82;4.95;;;16.70;99.90;;;;;;4994171;28;20061;-71
2022/11/20 13:56:25;;;;;;;11.15;5.35;;;16.80;99.90;;;;;;4993981;28;20093;-70
2022/11/20 14:00:04;;;;;;;11.30;5.40;;;16.70;99.90;;;;;;4994089;28;20490;-71
2022/11/20 14:03:28;;;;;;;9.77;5.60;;;16.80;99.90;;;;;;4994177;28;20610;-70
2022/11/20 14:06:45;;;;;;;9.10;5.43;;;16.80;99.90;;;;;;4994281;28;20073;-70
2022/11/20 14:09:56;;;;;;;9.23;5.80;;;16.80;99.90;;;;;;4993712;28;20050;-70
2022/11/20 14:13:15;;;;;;;9.43;5.97;;;16.80;99.90;;;;;;4994026;28;20046;-70
2022/11/20 14:16:24;;;;;;;12.93;6.05;;;16.70;99.90;;;;;;4993591;28;20394;-71
2022/11/20 14:19:33;;;;;;;9.52;5.22;;;16.70;99.90;;;;;;4993783;28;20045;-72
2022/11/20 14:22:37;;;;;;;12.95;7.82;;;16.70;99.90;;;;;;4993703;28;20061;-72
2022/11/20 14:25:45;;;;;;;13.95;9.57;;;16.70;99.90;;;;;;4993797;28;20102;-72
2022/11/20 14:28:50;;;;;;;19.40;9.80;;;16.70;99.90;;;;;;4992286;28;20501;-71
2022/11/20 14:31:56;;;;;;;14.45;9.43;;;16.60;99.90;;;;;;4993466;28;20061;-71
2022/11/20 14:35:08;;;;;;;21.90;13.18;;;16.60;99.90;;;;;;4993798;28;20041;-71
2022/11/20 14:38:15;;;;;;;20.23;11.25;;;16.50;99.90;;;;;;5004097;28;20217;-72
2022/11/20 14:41:24;;;;;;;17.83;11.05;;;16.40;99.90;;;;;;4993256;28;20302;-71
2022/11/20 14:44:32;;;;;;;15.15;10.20;;;16.30;99.90;;;;;;4993310;28;20045;-71
2022/11/20 14:47:36;;;;;;;15.75;10.02;;;16.30;99.90;;;;;;4993620;28;20049;-72
2022/11/20 14:50:40;;;;;;;18.05;9.55;;;16.20;99.90;;;;;;4993025;28;20069;-71
2022/11/20 14:53:44;;;;;;;21.58;10.25;;;16.20;99.90;;;;;;4993183;28;20045;-71
2022/11/20 14:57:01;;;;;;;15.65;10.32;;;16.20;99.90;;;;;;4992927;28;20073;-72
2022/11/20 15:00:11;;;;;;;16.15;10.70;;;16.20;99.90;;;;;;4993071;28;20069;-71
2022/11/20 15:03:16;;;;;;;20.65;11.65;;;16.20;99.90;;;;;;4993090;28;20057;-71
2022/11/20 15:06:26;;;;;;;19.05;12.10;;;16.10;99.90;;;;;;5003077;28;20053;-71
2022/11/20 15:09:29;;;;;;;20.45;12.98;;;16.10;99.90;;;;;;4993025;28;20046;-72
2022/11/20 15:12:47;;;;;;;14.27;10.27;;;16.10;99.90;;;;;;4991790;28;20049;-71
2022/11/20 15:15:54;;;;;;;14.00;8.57;;;16.10;99.90;;;;;;4992725;28;20069;-71
2022/11/20 15:19:00;;;;;;;12.02;8.07;;;16.00;99.90;;;;;;4992753;28;20398;-72
2022/11/20 15:22:09;;;;;;;12.48;7.78;;;16.00;99.90;;;;;;4992411;28;20054;-71
2022/11/20 15:25:18;;;;;;;10.30;5.88;;;15.80;99.90;;;;;;4992656;28;20366;-71
2022/11/20 15:28:29;;;;;;;36.78;24.52;;;15.70;99.90;;;;;;4992589;28;20050;-72
2022/11/20 15:31:33;;;;;;;10.30;4.95;;;15.70;99.90;;;;;;4992079;28;20062;-72
2022/11/20 15:34:36;;;;;;;5.60;3.10;;;15.70;99.90;;;;;;4992807;28;20049;-72
2022/11/20 15:37:41;;;;;;;5.75;3.38;;;15.60;99.90;;;;;;4992504;28;20061;-71
2022/11/20 15:40:46;;;;;;;8.65;4.47;;;15.60;99.90;;;;;;4991836;28;20390;-72
2022/11/20 15:43:49;;;;;;;11.48;6.18;;;15.60;99.90;;;;;;4992253;28;20053;-72
2022/11/20 15:46:53;;;;;;;10.40;5.35;;;15.50;99.90;;;;;;5002495;28;20045;-71
2022/11/20 15:49:57;;;;;;;7.05;3.33;;;15.50;99.90;;;;;;4991928;28;20053;-72
2022/11/20 15:53:01;;;;;;;10.00;5.72;;;15.50;99.90;;;;;;4991815;28;20038;-71
2022/11/20 15:56:09;;;;;;;5.38;2.70;;;15.40;99.90;;;;;;4991857;28;20049;-71
2022/11/20 15:59:14;;;;;;;6.28;3.83;;;15.40;99.90;;;;;;4991967;28;20046;-71
2022/11/20 16:02:18;;;;;;;4.25;3.20;;;15.50;99.90;;;;;;4991808;28;20053;-72
2022/11/20 16:05:23;;;;;;;6.40;3.35;;;15.50;99.90;;;;;;4991944;28;20525;-71
2022/11/20 16:08:26;;;;;;;7.25;3.97;;;15.50;99.90;;;;;;4991786;28;20049;-71
2022/11/20 16:11:31;;;;;;;8.90;4.13;;;15.40;99.90;;;;;;4991008;28;20057;-71
2022/11/20 16:17:57;;;;;;;6.43;3.13;;;15.20;99.90;;;;;;4991623;28;20041;-70
2022/11/20 16:21:02;;;;;;;10.77;5.45;;;15.20;99.90;;;;;;4991941;28;20041;-70
2022/11/20 16:24:07;;;;;;;12.30;5.00;;;15.10;99.90;;;;;;4991726;28;20054;-71
2022/11/20 16:27:11;;;;;;;6.70;2.78;;;15.00;99.90;;;;;;4991647;28;20540;-71
2022/11/20 16:30:15;;;;;;;7.68;3.20;;;15.00;99.90;;;;;;4990342;28;20764;-70
2022/11/20 16:33:19;;;;;;;7.95;4.70;;;15.00;99.90;;;;;;4991432;28;20049;-71